sensor_id;sensor_type;location;lat;lon;timestamp;P1;P2;P0
76043;PMS7003;64740;34.694;33.088;2024-01-25T00:02:43;9.8;8.2;4.9
76043;PMS7003;64740;34.694;33.088;2024-01-25T00:08:11;11;9.9;6.2
76043;PMS7003;64740;34.694;33.088;2024-01-25T00:13:13;12.6;10.6;6.7
76043;PMS7003;64740;34.694;33.088;2024-01-25T00:18:23;12.6;11.7;7.2
76043;PMS7003;64740;34.694;33.088;2024-01-25T00:22:43;12;10.5;6.5
76043;PMS7003;64740;34.694;33.088;2024-01-25T00:28:09;13.7;11.6;7.3
76043;PMS7003;64740;34.694;33.088;2024-01-25T00:32:43;12;10.3;6.7
76043;PMS7003;64740;34.694;33.088;2024-01-25T00:37:51;12.8;11;6.5
76043;PMS7003;64740;34.694;33.088;2024-01-25T00:43:09;11.8;9.8;5.8
76043;PMS7003;64740;34.694;33.088;2024-01-25T00:47:50;11.4;9.7;6
76043;PMS7003;64740;34.694;33.088;2024-01-25T00:53:03;10.3;9.2;5.8
76043;PMS7003;64740;34.694;33.088;2024-01-25T00:58:23;11.2;9.5;5.9
76043;PMS7003;64740;34.694;33.088;2024-01-25T01:03:11;10.7;9;5.6
76043;PMS7003;64740;34.694;33.088;2024-01-25T01:08:23;10.6;9.7;5.9
76043;PMS7003;64740;34.694;33.088;2024-01-25T01:13:17;10.2;9.4;5.9
76043;PMS7003;64740;34.694;33.088;2024-01-25T01:18:11;10.1;8.7;5.5
76043;PMS7003;64740;34.694;33.088;2024-01-25T01:23:23;11;9.4;6
76043;PMS7003;64740;34.694;33.088;2024-01-25T01:28:23;10.6;9.1;6
76043;PMS7003;64740;34.694;33.088;2024-01-25T01:33:09;11.1;9.2;5.6
76043;PMS7003;64740;34.694;33.088;2024-01-25T01:37:57;12.5;9.6;6.1
76043;PMS7003;64740;34.694;33.088;2024-01-25T01:43:17;10.3;8.3;5.1
76043;PMS7003;64740;34.694;33.088;2024-01-25T01:48:13;10.4;9;6
76043;PMS7003;64740;34.694;33.088;2024-01-25T01:53:23;10.3;9.3;5.9
76043;PMS7003;64740;34.694;33.088;2024-01-25T01:57:43;10.2;8.3;5.3
76043;PMS7003;64740;34.694;33.088;2024-01-25T02:03:23;10.3;8.5;5.2
76043;PMS7003;64740;34.694;33.088;2024-01-25T02:07:59;10;8.5;5.2
76043;PMS7003;64740;34.694;33.088;2024-01-25T02:12:43;9.6;7.8;5
76043;PMS7003;64740;34.694;33.088;2024-01-25T02:17:49;10.5;8.6;5.8
76043;PMS7003;64740;34.694;33.088;2024-01-25T02:22:59;10.7;8.7;5.7
76043;PMS7003;64740;34.694;33.088;2024-01-25T02:27:43;10.2;8.7;5.3
76043;PMS7003;64740;34.694;33.088;2024-01-25T02:32:55;9.6;8.8;5.6
76043;PMS7003;64740;34.694;33.088;2024-01-25T02:38:11;9.9;8.6;5.2
76043;PMS7003;64740;34.694;33.088;2024-01-25T02:43:01;11.7;10;5.9
76043;PMS7003;64740;34.694;33.088;2024-01-25T02:48:23;10.4;8.8;5.5
76043;PMS7003;64740;34.694;33.088;2024-01-25T02:53:01;11.8;9.8;5.8
76043;PMS7003;64740;34.694;33.088;2024-01-25T02:58:21;10.6;8.3;5.2
76043;PMS7003;64740;34.694;33.088;2024-01-25T03:02:57;10.5;8.7;5.4
76043;PMS7003;64740;34.694;33.088;2024-01-25T03:08:07;10.3;9.5;5.8
76043;PMS7003;64740;34.694;33.088;2024-01-25T03:12:57;10.2;8.5;5.3
76043;PMS7003;64740;34.694;33.088;2024-01-25T03:18:11;11.1;9.1;5.6
76043;PMS7003;64740;34.694;33.088;2024-01-25T03:23:21;10.3;8.4;5.1
76043;PMS7003;64740;34.694;33.088;2024-01-25T03:28:09;9.4;8.6;5.3
76043;PMS7003;64740;34.694;33.088;2024-01-25T03:32:45;10.1;8.7;5.7
76043;PMS7003;64740;34.694;33.088;2024-01-25T03:38:23;10.6;9.2;5.7
76043;PMS7003;64740;34.694;33.088;2024-01-25T03:43:23;10.3;8.2;5.2
76043;PMS7003;64740;34.694;33.088;2024-01-25T03:48:13;10.1;9.4;5.9
76043;PMS7003;64740;34.694;33.088;2024-01-25T03:52:43;10.3;9;5.3
76043;PMS7003;64740;34.694;33.088;2024-01-25T03:57:43;10.7;9.6;6
76043;PMS7003;64740;34.694;33.088;2024-01-25T04:02:43;10.9;9.6;6
76043;PMS7003;64740;34.694;33.088;2024-01-25T04:07:43;11;9.7;6.3
76043;PMS7003;64740;34.694;33.088;2024-01-25T04:12:43;12.1;9.9;6.4
76043;PMS7003;64740;34.694;33.088;2024-01-25T04:17:59;11;9.6;5.8
76043;PMS7003;64740;34.694;33.088;2024-01-25T04:23:09;11.8;9.7;6.2
76043;PMS7003;64740;34.694;33.088;2024-01-25T04:28:21;11.7;10.1;6.6
76043;PMS7003;64740;34.694;33.088;2024-01-25T04:32:37;13.3;10.7;6.5
76043;PMS7003;64740;34.694;33.088;2024-01-25T04:38:05;12.7;11.2;7
76043;PMS7003;64740;34.694;33.088;2024-01-25T04:43:09;12.4;10.4;6.6
76043;PMS7003;64740;34.694;33.088;2024-01-25T04:47:57;13.1;11.4;7.5
76043;PMS7003;64740;34.694;33.088;2024-01-25T04:53:11;12.9;11;7
76043;PMS7003;64740;34.694;33.088;2024-01-25T04:58:23;13.8;11.8;7.6
76043;PMS7003;64740;34.694;33.088;2024-01-25T05:02:51;13.2;11.4;7.4
76043;PMS7003;64740;34.694;33.088;2024-01-25T05:07:43;13.6;11.5;7.9
76043;PMS7003;64740;34.694;33.088;2024-01-25T05:13:23;14.1;11.2;7.3
76043;PMS7003;64740;34.694;33.088;2024-01-25T05:18:23;14.1;12.1;8
76043;PMS7003;64740;34.694;33.088;2024-01-25T05:23:11;14.2;11.5;7.2
76043;PMS7003;64740;34.694;33.088;2024-01-25T05:27:49;14.1;11.7;7.8
76043;PMS7003;64740;34.694;33.088;2024-01-25T05:33:01;13.7;11.3;7.3
76043;PMS7003;64740;34.694;33.088;2024-01-25T05:38:03;12.9;11;6.8
76043;PMS7003;64740;34.694;33.088;2024-01-25T05:42:49;12.1;9.9;6.2
76043;PMS7003;64740;34.694;33.088;2024-01-25T05:47:49;12.7;11;6.6
76043;PMS7003;64740;34.694;33.088;2024-01-25T05:52:53;13.2;11.7;7.1
76043;PMS7003;64740;34.694;33.088;2024-01-25T05:57:45;12.6;11;7.2
76043;PMS7003;64740;34.694;33.088;2024-01-25T06:02:43;13.1;11.7;7.4
76043;PMS7003;64740;34.694;33.088;2024-01-25T06:08:23;12.8;11.2;6.9
76043;PMS7003;64740;34.694;33.088;2024-01-25T06:13:11;14.1;11.9;7
76043;PMS7003;64740;34.694;33.088;2024-01-25T06:18:11;15.9;12.8;8
76043;PMS7003;64740;34.694;33.088;2024-01-25T06:22:49;15.9;13.1;7.6
76043;PMS7003;64740;34.694;33.088;2024-01-25T06:28:11;14.5;12.7;8.1
76043;PMS7003;64740;34.694;33.088;2024-01-25T06:33:09;15.6;13.6;8.5
76043;PMS7003;64740;34.694;33.088;2024-01-25T06:37:43;13.6;11.4;6.9
76043;PMS7003;64740;34.694;33.088;2024-01-25T06:42:59;11;9.9;6.6
76043;PMS7003;64740;34.694;33.088;2024-01-25T06:48:21;12.9;11;7.3
76043;PMS7003;64740;34.694;33.088;2024-01-25T06:53:23;14.5;12;8
76043;PMS7003;64740;34.694;33.088;2024-01-25T06:57:59;16.1;12.8;7.9
76043;PMS7003;64740;34.694;33.088;2024-01-25T07:03:09;14.6;12.8;8.1
76043;PMS7003;64740;34.694;33.088;2024-01-25T07:07:59;13.3;11.6;7.6
76043;PMS7003;64740;34.694;33.088;2024-01-25T07:12:43;11.1;10.1;6
76043;PMS7003;64740;34.694;33.088;2024-01-25T07:17:43;13.4;11.8;7.8
76043;PMS7003;64740;34.694;33.088;2024-01-25T07:22:57;13.4;12.1;7.5
76043;PMS7003;64740;34.694;33.088;2024-01-25T07:27:59;12.4;11.1;7.1
76043;PMS7003;64740;34.694;33.088;2024-01-25T07:33:21;12.9;11.2;7.5
76043;PMS7003;64740;34.694;33.088;2024-01-25T07:38:21;14.2;12.6;8.2
76043;PMS7003;64740;34.694;33.088;2024-01-25T07:43:19;14.4;12.4;8
76043;PMS7003;64740;34.694;33.088;2024-01-25T07:48:21;12.6;11.6;7.7
76043;PMS7003;64740;34.694;33.088;2024-01-25T07:52:59;13.1;11.5;7.5
76043;PMS7003;64740;34.694;33.088;2024-01-25T07:58:23;14.5;11.6;7.9
76043;PMS7003;64740;34.694;33.088;2024-01-25T08:03:23;14.7;12.7;8
76043;PMS7003;64740;34.694;33.088;2024-01-25T08:08:09;14.6;12.6;8.2
76043;PMS7003;64740;34.694;33.088;2024-01-25T08:12:57;15;12.6;7.7
76043;PMS7003;64740;34.694;33.088;2024-01-25T08:18:11;14.9;12.5;8.4
76043;PMS7003;64740;34.694;33.088;2024-01-25T08:23:11;15.1;13.6;9
76043;PMS7003;64740;34.694;33.088;2024-01-25T08:28:23;14.4;11.8;7.9
76043;PMS7003;64740;34.694;33.088;2024-01-25T08:32:49;13.4;12.2;7.6
76043;PMS7003;64740;34.694;33.088;2024-01-25T08:38:21;16;13.7;9.2
76043;PMS7003;64740;34.694;33.088;2024-01-25T08:42:59;11.6;10;6.4
76043;PMS7003;64740;34.694;33.088;2024-01-25T08:47:49;8.7;6.8;4.6
76043;PMS7003;64740;34.694;33.088;2024-01-25T08:52:49;8;6.8;4.3
76043;PMS7003;64740;34.694;33.088;2024-01-25T08:57:43;8.6;7.3;4.7
76043;PMS7003;64740;34.694;33.088;2024-01-25T09:02:43;7.6;6.7;4.2
76043;PMS7003;64740;34.694;33.088;2024-01-25T09:08:21;8.2;6.9;4.8
76043;PMS7003;64740;34.694;33.088;2024-01-25T09:13:11;7.6;6.4;4.2
76043;PMS7003;64740;34.694;33.088;2024-01-25T09:18:21;7.9;7.2;4.9
76043;PMS7003;64740;34.694;33.088;2024-01-25T09:23:23;9;7.1;4.8
76043;PMS7003;64740;34.694;33.088;2024-01-25T09:28:01;8.8;7.6;4.9
76043;PMS7003;64740;34.694;33.088;2024-01-25T09:33:21;8.4;6.9;4.7
76043;PMS7003;64740;34.694;33.088;2024-01-25T09:38:23;7.3;6.9;4.6
76043;PMS7003;64740;34.694;33.088;2024-01-25T09:43:07;7.8;6.4;4.1
76043;PMS7003;64740;34.694;33.088;2024-01-25T09:47:43;8;6.7;4.4
76043;PMS7003;64740;34.694;33.088;2024-01-25T09:53:21;13.9;9.8;5.7
76043;PMS7003;64740;34.694;33.088;2024-01-25T09:58:09;15.3;10.2;5.6
76043;PMS7003;64740;34.694;33.088;2024-01-25T10:03:21;20.5;14.2;7
76043;PMS7003;64740;34.694;33.088;2024-01-25T10:07:57;29.9;19.8;9.5
76043;PMS7003;64740;34.694;33.088;2024-01-25T10:13:21;13.8;9.3;5.5
76043;PMS7003;64740;34.694;33.088;2024-01-25T10:18:13;8.6;7.1;4.3
76043;PMS7003;64740;34.694;33.088;2024-01-25T10:22:51;8.5;7.5;4.7
76043;PMS7003;64740;34.694;33.088;2024-01-25T10:27:43;7.7;6.8;4.6
76043;PMS7003;64740;34.694;33.088;2024-01-25T10:32:43;7.5;6.5;4.1
76043;PMS7003;64740;34.694;33.088;2024-01-25T10:37:43;8;6.7;4.3
76043;PMS7003;64740;34.694;33.088;2024-01-25T10:42:49;6.1;5;3.5
76043;PMS7003;64740;34.694;33.088;2024-01-25T10:48:11;6.1;4.9;3.2
76043;PMS7003;64740;34.694;33.088;2024-01-25T10:53:11;7.8;6.5;4.2
76043;PMS7003;64740;34.694;33.088;2024-01-25T10:58:23;26.5;16.7;8.2
76043;PMS7003;64740;34.694;33.088;2024-01-25T11:02:43;13.5;9.5;5.6
76043;PMS7003;64740;34.694;33.088;2024-01-25T11:08:23;8.4;7.4;4.6
76043;PMS7003;64740;34.694;33.088;2024-01-25T11:12:47;9.1;7.4;4.9
76043;PMS7003;64740;34.694;33.088;2024-01-25T11:18:09;10.8;8.5;5.4
76043;PMS7003;64740;34.694;33.088;2024-01-25T11:22:57;11.7;8.8;5.4
76043;PMS7003;64740;34.694;33.088;2024-01-25T11:28:11;9.2;8.5;5.2
76043;PMS7003;64740;34.694;33.088;2024-01-25T11:33:23;9.1;8.2;5.8
76043;PMS7003;64740;34.694;33.088;2024-01-25T11:38:01;11.3;9.9;6
76043;PMS7003;64740;34.694;33.088;2024-01-25T11:42:44;9.4;8.6;5.6
76043;PMS7003;64740;34.694;33.088;2024-01-25T11:48:21;9.5;7.8;4.9
76043;PMS7003;64740;34.694;33.088;2024-01-25T11:53:23;12.5;9.5;6
76043;PMS7003;64740;34.694;33.088;2024-01-25T11:58:13;16.8;10.9;5.9
76043;PMS7003;64740;34.694;33.088;2024-01-25T12:02:43;12.3;10.4;6.6
76043;PMS7003;64740;34.694;33.088;2024-01-25T12:07:43;14;11;6.7
76043;PMS7003;64740;34.694;33.088;2024-01-25T12:12:51;10.5;9.2;5.9
76043;PMS7003;64740;34.694;33.088;2024-01-25T12:17:49;14.3;10.4;6.6
76043;PMS7003;64740;34.694;33.088;2024-01-25T12:22:43;15;11.7;7.4
76043;PMS7003;64740;34.694;33.088;2024-01-25T12:27:59;11.8;10.5;7.2
76043;PMS7003;64740;34.694;33.088;2024-01-25T12:33:11;11.6;10.1;6.3
76043;PMS7003;64740;34.694;33.088;2024-01-25T12:37:49;12.4;10.8;6.9
76043;PMS7003;64740;34.694;33.088;2024-01-25T12:43:23;11.7;10.2;6.7
76043;PMS7003;64740;34.694;33.088;2024-01-25T12:48:11;12.4;10.3;6.4
76043;PMS7003;64740;34.694;33.088;2024-01-25T12:53:09;12.1;10.1;6.6
76043;PMS7003;64740;34.694;33.088;2024-01-25T12:57:58;12.1;10.1;6.5
76043;PMS7003;64740;34.694;33.088;2024-01-25T13:02:59;11.7;10.5;6.9
76043;PMS7003;64740;34.694;33.088;2024-01-25T13:07:45;13;10.6;7
76043;PMS7003;64740;34.694;33.088;2024-01-25T13:12:43;10.6;9.2;6.3
76043;PMS7003;64740;34.694;33.088;2024-01-25T13:17:43;14.7;11.7;7.3
76043;PMS7003;64740;34.694;33.088;2024-01-25T13:23:11;14.9;11.8;7.3
76043;PMS7003;64740;34.694;33.088;2024-01-25T13:28:23;14.4;11.1;6.3
76043;PMS7003;64740;34.694;33.088;2024-01-25T13:33:07;11.8;10.5;6.8
76043;PMS7003;64740;34.694;33.088;2024-01-25T13:37:43;14;11.3;7.2
76043;PMS7003;64740;34.694;33.088;2024-01-25T13:42:43;12;10.1;6.4
76043;PMS7003;64740;34.694;33.088;2024-01-25T13:47:57;11.5;10.2;6.7
76043;PMS7003;64740;34.694;33.088;2024-01-25T13:52:43;11.5;10.2;6.5
76043;PMS7003;64740;34.694;33.088;2024-01-25T13:57:43;13.1;11.2;6.9
76043;PMS7003;64740;34.694;33.088;2024-01-25T14:02:59;14.2;11.8;7.5
76043;PMS7003;64740;34.694;33.088;2024-01-25T14:07:59;12.7;10.7;7
76043;PMS7003;64740;34.694;33.088;2024-01-25T14:12:59;13.6;11.1;7.3
76043;PMS7003;64740;34.694;33.088;2024-01-25T14:18:23;13.3;11.3;7.2
76043;PMS7003;64740;34.694;33.088;2024-01-25T14:23:13;13.7;10.7;6.9
76043;PMS7003;64740;34.694;33.088;2024-01-25T14:28:11;12.3;10.8;6.8
76043;PMS7003;64740;34.694;33.088;2024-01-25T14:32:57;13.9;11.4;7.6
76043;PMS7003;64740;34.694;33.088;2024-01-25T14:38:11;12.9;11.1;7.5
76043;PMS7003;64740;34.694;33.088;2024-01-25T14:43:09;12.5;10.8;7.1
76043;PMS7003;64740;34.694;33.088;2024-01-25T14:47:57;13.8;11.2;7.7
76043;PMS7003;64740;34.694;33.088;2024-01-25T14:52:59;13.4;11.5;7.8
76043;PMS7003;64740;34.694;33.088;2024-01-25T14:58:13;13.6;11.7;7.5
76043;PMS7003;64740;34.694;33.088;2024-01-25T15:03:23;13.5;11.7;7.2
76043;PMS7003;64740;34.694;33.088;2024-01-25T15:24:14;14.9;12.8;8
76043;PMS7003;64740;34.694;33.088;2024-01-25T15:29:30;13.6;11.2;6.8
76043;PMS7003;64740;34.694;33.088;2024-01-25T15:34:40;16.1;13.3;8.3
76043;PMS7003;64740;34.694;33.088;2024-01-25T15:39:38;14.2;12.1;7.9
76043;PMS7003;64740;34.694;33.088;2024-01-25T15:44:00;14.9;13.3;8.6
76043;PMS7003;64740;34.694;33.088;2024-01-25T15:49:40;15.7;13.8;8.7
76043;PMS7003;64740;34.694;33.088;2024-01-25T15:54:26;15.2;13.1;8.5
76043;PMS7003;64740;34.694;33.088;2024-01-25T15:59:26;16.5;13.9;8.8
76043;PMS7003;64740;34.694;33.088;2024-01-25T16:04:00;17.9;15;9.5
76043;PMS7003;64740;34.694;33.088;2024-01-25T16:09:16;18.6;14.9;9.8
76043;PMS7003;64740;34.694;33.088;2024-01-25T16:14:30;15.9;13.3;7.9
76043;PMS7003;64740;34.694;33.088;2024-01-25T16:19:40;18.5;16.6;10.8
76043;PMS7003;64740;34.694;33.088;2024-01-25T16:24:16;19.8;16.7;11.1
76043;PMS7003;64740;34.694;33.088;2024-01-25T16:29:40;21.8;18.9;12.8
76043;PMS7003;64740;34.694;33.088;2024-01-25T16:34:04;24.1;19.4;12.5
76043;PMS7003;64740;34.694;33.088;2024-01-25T16:39:08;20.5;18;11.4
76043;PMS7003;64740;34.694;33.088;2024-01-25T16:44:06;18.7;15.9;10.3
76043;PMS7003;64740;34.694;33.088;2024-01-25T16:49:30;19.2;16.3;10.3
76043;PMS7003;64740;34.694;33.088;2024-01-25T16:54:16;19.6;16.8;10.6
76043;PMS7003;64740;34.694;33.088;2024-01-25T16:59:28;20.4;18.3;11.8
76043;PMS7003;64740;34.694;33.088;2024-01-25T17:04:30;19.8;17.7;11.7
76043;PMS7003;64740;34.694;33.088;2024-01-25T17:09:10;20.7;18.6;11.9
76043;PMS7003;64740;34.694;33.088;2024-01-25T17:14:40;20.5;17.8;11.6
76043;PMS7003;64740;34.694;33.088;2024-01-25T17:19:12;18.5;16;10.4
76043;PMS7003;64740;34.694;33.088;2024-01-25T17:24:40;19.5;15.7;10.3
76043;PMS7003;64740;34.694;33.088;2024-01-25T17:29:26;20;16.6;10.9
76043;PMS7003;64740;34.694;33.088;2024-01-25T17:34:26;20;17.2;11
76043;PMS7003;64740;34.694;33.088;2024-01-25T17:39:00;20.8;18.1;11.7
76043;PMS7003;64740;34.694;33.088;2024-01-25T17:44:28;22.4;19.4;12.8
76043;PMS7003;64740;34.694;33.088;2024-01-25T17:49:26;22.4;18.3;11.3
76043;PMS7003;64740;34.694;33.088;2024-01-25T17:54:14;23.2;19.7;13.1
76043;PMS7003;64740;34.694;33.088;2024-01-25T17:59:16;19;16.3;11
76043;PMS7003;64740;34.694;33.088;2024-01-25T18:04:38;20.8;17.7;11.4
76043;PMS7003;64740;34.694;33.088;2024-01-25T18:09:40;16.4;14.9;9.4
76043;PMS7003;64740;34.694;33.088;2024-01-25T18:14:08;17.4;14.6;9.9
76043;PMS7003;64740;34.694;33.088;2024-01-25T18:19:00;17.4;15.1;10
76043;PMS7003;64740;34.694;33.088;2024-01-25T18:24:00;15.8;13.7;9.2
76043;PMS7003;64740;34.694;33.088;2024-01-25T18:29:08;16.2;14.1;8.9
76043;PMS7003;64740;34.694;33.088;2024-01-25T18:34:08;18;15.5;10
76043;PMS7003;64740;34.694;33.088;2024-01-25T18:39:00;20.4;17.8;11.4
76043;PMS7003;64740;34.694;33.088;2024-01-25T18:44:10;21.7;19.4;12.7
76043;PMS7003;64740;34.694;33.088;2024-01-25T18:49:30;24.3;19.7;12.9
76043;PMS7003;64740;34.694;33.088;2024-01-25T18:54:30;22.4;20.2;13.3
76043;PMS7003;64740;34.694;33.088;2024-01-25T18:59:42;21.5;18.5;12.4
76043;PMS7003;64740;34.694;33.088;2024-01-25T19:04:32;23.7;20.8;13.8
76043;PMS7003;64740;34.694;33.088;2024-01-25T19:09:30;21.4;17.8;11.7
76043;PMS7003;64740;34.694;33.088;2024-01-25T19:14:08;19.6;17.4;11.5
76043;PMS7003;64740;34.694;33.088;2024-01-25T19:19:30;19.9;17.2;11.7
76043;PMS7003;64740;34.694;33.088;2024-01-25T19:24:28;19.9;17.6;11.8
76043;PMS7003;64740;34.694;33.088;2024-01-25T19:29:24;20;18;12
76043;PMS7003;64740;34.694;33.088;2024-01-25T19:34:08;20.1;17.6;11.9
76043;PMS7003;64740;34.694;33.088;2024-01-25T19:39:32;20;17.4;11.4
76043;PMS7003;64740;34.694;33.088;2024-01-25T19:44:40;21.2;18.4;11.7
76043;PMS7003;64740;34.694;33.088;2024-01-25T19:49:10;21.7;17.7;11.8
76043;PMS7003;64740;34.694;33.088;2024-01-25T19:54:28;20.7;17.6;11.4
76043;PMS7003;64740;34.694;33.088;2024-01-25T19:59:00;19;16.5;10.3
76043;PMS7003;64740;34.694;33.088;2024-01-25T20:04:00;19;15.9;10.9
76043;PMS7003;64740;34.694;33.088;2024-01-25T20:09:00;18.1;15.3;10.7
76043;PMS7003;64740;34.694;33.088;2024-01-25T20:14:08;21.1;18.2;11.5
76043;PMS7003;64740;34.694;33.088;2024-01-25T20:19:10;19.1;17;10.7
76043;PMS7003;64740;34.694;33.088;2024-01-25T20:24:40;19.2;16.6;11.2
76043;PMS7003;64740;34.694;33.088;2024-01-25T20:29:30;20.1;17.3;11.3
76043;PMS7003;64740;34.694;33.088;2024-01-25T20:34:40;21.1;18.3;11.4
76043;PMS7003;64740;34.694;33.088;2024-01-25T20:39:40;20.3;17.5;11.5
76043;PMS7003;64740;34.694;33.088;2024-01-25T20:44:30;19.7;17.2;11.8
76043;PMS7003;64740;34.694;33.088;2024-01-25T20:49:40;20.7;17.5;11.5
76043;PMS7003;64740;34.694;33.088;2024-01-25T20:54:40;22.2;19.4;12.2
76043;PMS7003;64740;34.694;33.088;2024-01-25T20:59:20;21.1;17.7;11.8
76043;PMS7003;64740;34.694;33.088;2024-01-25T21:04:08;20.3;18;12.2
76043;PMS7003;64740;34.694;33.088;2024-01-25T21:09:26;20.9;17.5;11.5
76043;PMS7003;64740;34.694;33.088;2024-01-25T21:14:20;20.8;17.3;11.7
76043;PMS7003;64740;34.694;33.088;2024-01-25T21:19:32;19.2;17.7;11.5
76043;PMS7003;64740;34.694;33.088;2024-01-25T21:24:00;19.8;17.1;11.2
76043;PMS7003;64740;34.694;33.088;2024-01-25T21:29:40;20.1;17.7;11.5
76043;PMS7003;64740;34.694;33.088;2024-01-25T21:34:18;22.1;18.3;12.1
76043;PMS7003;64740;34.694;33.088;2024-01-25T21:39:16;21.5;18.8;12.3
76043;PMS7003;64740;34.694;33.088;2024-01-25T21:44:00;20.3;17.4;11.5
76043;PMS7003;64740;34.694;33.088;2024-01-25T21:49:00;20.4;18.1;11.6
76043;PMS7003;64740;34.694;33.088;2024-01-25T21:54:08;20.6;17.8;11.5
76043;PMS7003;64740;34.694;33.088;2024-01-25T21:59:00;18.1;16.5;10.8
76043;PMS7003;64740;34.694;33.088;2024-01-25T22:04:30;18.7;16.2;10.9
76043;PMS7003;64740;34.694;33.088;2024-01-25T22:09:02;18.6;16.2;10.3
76043;PMS7003;64740;34.694;33.088;2024-01-25T22:14:24;17.1;15.2;10.1
76043;PMS7003;64740;34.694;33.088;2024-01-25T22:19:10;19.4;16.6;10.5
76043;PMS7003;64740;34.694;33.088;2024-01-25T22:24:40;19;16.3;10.9
76043;PMS7003;64740;34.694;33.088;2024-01-25T22:29:40;17.6;15.9;10.6
76043;PMS7003;64740;34.694;33.088;2024-01-25T22:34:28;18.2;15.8;10.4
76043;PMS7003;64740;34.694;33.088;2024-01-25T22:39:28;18.4;15.4;10.2
76043;PMS7003;64740;34.694;33.088;2024-01-25T22:44:28;18.1;15.4;10.5
76043;PMS7003;64740;34.694;33.088;2024-01-25T22:49:30;17.4;15.6;10.4
76043;PMS7003;64740;34.694;33.088;2024-01-25T22:54:38;16.8;14.5;9.5
76043;PMS7003;64740;34.694;33.088;2024-01-25T22:59:14;16.5;13.5;8.4
76043;PMS7003;64740;34.694;33.088;2024-01-25T23:04:40;16.6;14.1;8.9
76043;PMS7003;64740;34.694;33.088;2024-01-25T23:09:00;17.2;14.9;9.7
76043;PMS7003;64740;34.694;33.088;2024-01-25T23:14:00;16.6;14.4;9
76043;PMS7003;64740;34.694;33.088;2024-01-25T23:19:08;18.2;14.9;9.8
76043;PMS7003;64740;34.694;33.088;2024-01-25T23:24:00;17.8;15.3;10.3
76043;PMS7003;64740;34.694;33.088;2024-01-25T23:29:18;18.9;15.9;9.8
76043;PMS7003;64740;34.694;33.088;2024-01-25T23:34:28;18.7;16.4;10.7
76043;PMS7003;64740;34.694;33.088;2024-01-25T23:39:20;19.4;16.6;10.8
76043;PMS7003;64740;34.694;33.088;2024-01-25T23:44:18;17.6;16;9.8
76043;PMS7003;64740;34.694;33.088;2024-01-25T23:49:40;18.6;16;10.2
76043;PMS7003;64740;34.694;33.088;2024-01-25T23:54:40;18.6;16.2;10.4
76043;PMS7003;64740;34.694;33.088;2024-01-25T23:59:40;20.2;16.8;10.8
